sensor_id;sensor_type;location;lat;lon;timestamp;temperature;humidity
35593;DHT22;64447;52.140;5.602;2023-06-10T00:01:36;22.90;59.40
35593;DHT22;64447;52.140;5.602;2023-06-10T00:07:23;22.40;59.50
35593;DHT22;64447;52.140;5.602;2023-06-10T00:09:49;22.20;60.70
35593;DHT22;64447;52.140;5.602;2023-06-10T00:12:15;22.20;60.60
35593;DHT22;64447;52.140;5.602;2023-06-10T00:14:42;22.10;60.60
35593;DHT22;64447;52.140;5.602;2023-06-10T00:17:07;21.90;60.90
35593;DHT22;64447;52.140;5.602;2023-06-10T00:19:34;22.10;60.50
35593;DHT22;64447;52.140;5.602;2023-06-10T00:22:00;22.30;60.00
35593;DHT22;64447;52.140;5.602;2023-06-10T00:24:26;22.30;59.70
35593;DHT22;64447;52.140;5.602;2023-06-10T00:26:51;22.40;59.40
35593;DHT22;64447;52.140;5.602;2023-06-10T00:29:17;22.60;58.90
35593;DHT22;64447;52.140;5.602;2023-06-10T00:31:45;22.60;58.70
35593;DHT22;64447;52.140;5.602;2023-06-10T00:37:35;22.20;59.10
35593;DHT22;64447;52.140;5.602;2023-06-10T00:40:02;22.20;58.80
35593;DHT22;64447;52.140;5.602;2023-06-10T00:42:28;22.20;59.00
35593;DHT22;64447;52.140;5.602;2023-06-10T00:44:54;22.30;58.70
35593;DHT22;64447;52.140;5.602;2023-06-10T00:47:20;22.30;58.90
35593;DHT22;64447;52.140;5.602;2023-06-10T00:49:47;22.20;58.50
35593;DHT22;64447;52.140;5.602;2023-06-10T00:52:14;21.80;59.40
35593;DHT22;64447;52.140;5.602;2023-06-10T00:54:41;21.70;59.80
35593;DHT22;64447;52.140;5.602;2023-06-10T00:57:07;21.80;60.30
35593;DHT22;64447;52.140;5.602;2023-06-10T00:59:32;21.90;59.40
35593;DHT22;64447;52.140;5.602;2023-06-10T01:01:59;22.00;59.40
35593;DHT22;64447;52.140;5.602;2023-06-10T01:08:00;21.50;60.10
35593;DHT22;64447;52.140;5.602;2023-06-10T01:10:43;21.70;60.20
35593;DHT22;64447;52.140;5.602;2023-06-10T01:13:13;21.70;60.30
35593;DHT22;64447;52.140;5.602;2023-06-10T01:15:39;21.70;60.20
35593;DHT22;64447;52.140;5.602;2023-06-10T01:18:09;21.80;60.20
35593;DHT22;64447;52.140;5.602;2023-06-10T01:20:36;21.60;60.70
35593;DHT22;64447;52.140;5.602;2023-06-10T01:23:05;21.70;60.30
35593;DHT22;64447;52.140;5.602;2023-06-10T01:25:32;21.70;60.60
35593;DHT22;64447;52.140;5.602;2023-06-10T01:28:20;21.50;60.80
35593;DHT22;64447;52.140;5.602;2023-06-10T01:31:13;21.50;60.90
35593;DHT22;64447;52.140;5.602;2023-06-10T01:33:45;21.40;61.60
35593;DHT22;64447;52.140;5.602;2023-06-10T01:36:12;21.40;61.60
35593;DHT22;64447;52.140;5.602;2023-06-10T01:38:46;21.20;62.30
35593;DHT22;64447;52.140;5.602;2023-06-10T01:41:17;21.10;62.80
35593;DHT22;64447;52.140;5.602;2023-06-10T01:43:44;21.30;62.60
35593;DHT22;64447;52.140;5.602;2023-06-10T01:46:10;21.10;62.90
35593;DHT22;64447;52.140;5.602;2023-06-10T01:48:36;21.20;63.00
35593;DHT22;64447;52.140;5.602;2023-06-10T01:51:02;21.20;63.30
35593;DHT22;64447;52.140;5.602;2023-06-10T01:53:28;21.10;63.70
35593;DHT22;64447;52.140;5.602;2023-06-10T01:55:54;21.00;63.90
35593;DHT22;64447;52.140;5.602;2023-06-10T01:58:19;20.90;64.50
35593;DHT22;64447;52.140;5.602;2023-06-10T02:00:45;20.90;64.80
35593;DHT22;64447;52.140;5.602;2023-06-10T02:03:10;20.80;65.20
35593;DHT22;64447;52.140;5.602;2023-06-10T02:05:36;20.80;65.40
35593;DHT22;64447;52.140;5.602;2023-06-10T02:08:02;20.70;65.70
35593;DHT22;64447;52.140;5.602;2023-06-10T02:10:27;20.80;65.90
35593;DHT22;64447;52.140;5.602;2023-06-10T02:12:53;20.70;66.00
35593;DHT22;64447;52.140;5.602;2023-06-10T02:15:19;20.80;66.10
35593;DHT22;64447;52.140;5.602;2023-06-10T02:17:44;20.70;66.40
35593;DHT22;64447;52.140;5.602;2023-06-10T02:23:31;20.80;66.60
35593;DHT22;64447;52.140;5.602;2023-06-10T02:25:57;20.90;66.60
35593;DHT22;64447;52.140;5.602;2023-06-10T02:28:23;20.70;67.10
35593;DHT22;64447;52.140;5.602;2023-06-10T02:30:48;20.80;67.00
35593;DHT22;64447;52.140;5.602;2023-06-10T02:33:14;21.00;66.80
35593;DHT22;64447;52.140;5.602;2023-06-10T02:35:40;20.90;66.70
35593;DHT22;64447;52.140;5.602;2023-06-10T02:38:05;21.00;67.00
35593;DHT22;64447;52.140;5.602;2023-06-10T02:40:31;20.90;66.90
35593;DHT22;64447;52.140;5.602;2023-06-10T02:42:57;20.80;67.40
35593;DHT22;64447;52.140;5.602;2023-06-10T02:45:24;20.90;67.40
35593;DHT22;64447;52.140;5.602;2023-06-10T02:47:49;20.90;67.40
35593;DHT22;64447;52.140;5.602;2023-06-10T02:53:37;20.70;68.20
35593;DHT22;64447;52.140;5.602;2023-06-10T02:56:02;20.50;68.90
35593;DHT22;64447;52.140;5.602;2023-06-10T02:58:28;20.70;68.70
35593;DHT22;64447;52.140;5.602;2023-06-10T03:00:54;20.50;69.30
35593;DHT22;64447;52.140;5.602;2023-06-10T03:03:20;20.50;69.60
35593;DHT22;64447;52.140;5.602;2023-06-10T03:05:47;20.40;70.30
35593;DHT22;64447;52.140;5.602;2023-06-10T03:08:13;20.40;70.00
35593;DHT22;64447;52.140;5.602;2023-06-10T03:10:39;20.40;70.30
35593;DHT22;64447;52.140;5.602;2023-06-10T03:13:04;20.10;71.20
35593;DHT22;64447;52.140;5.602;2023-06-10T03:15:30;20.00;71.80
35593;DHT22;64447;52.140;5.602;2023-06-10T03:17:59;20.00;71.60
35593;DHT22;64447;52.140;5.602;2023-06-10T03:23:47;20.10;71.80
35593;DHT22;64447;52.140;5.602;2023-06-10T03:26:12;20.10;72.20
35593;DHT22;64447;52.140;5.602;2023-06-10T03:28:39;20.20;72.20
35593;DHT22;64447;52.140;5.602;2023-06-10T03:31:05;20.30;71.90
35593;DHT22;64447;52.140;5.602;2023-06-10T03:33:30;20.20;72.30
35593;DHT22;64447;52.140;5.602;2023-06-10T03:35:56;20.40;72.10
35593;DHT22;64447;52.140;5.602;2023-06-10T03:38:22;20.50;71.80
35593;DHT22;64447;52.140;5.602;2023-06-10T03:40:47;20.60;71.30
35593;DHT22;64447;52.140;5.602;2023-06-10T03:43:13;20.60;71.40
35593;DHT22;64447;52.140;5.602;2023-06-10T03:45:38;20.50;71.80
35593;DHT22;64447;52.140;5.602;2023-06-10T03:48:04;20.50;72.20
35593;DHT22;64447;52.140;5.602;2023-06-10T03:53:53;20.20;73.50
35593;DHT22;64447;52.140;5.602;2023-06-10T03:56:18;20.10;73.80
35593;DHT22;64447;52.140;5.602;2023-06-10T03:58:44;20.00;74.40
35593;DHT22;64447;52.140;5.602;2023-06-10T04:01:10;19.90;75.00
35593;DHT22;64447;52.140;5.602;2023-06-10T04:03:36;20.10;74.80
35593;DHT22;64447;52.140;5.602;2023-06-10T04:09:23;20.10;75.00
35593;DHT22;64447;52.140;5.602;2023-06-10T04:11:49;19.70;76.50
35593;DHT22;64447;52.140;5.602;2023-06-10T04:14:14;19.70;77.20
35593;DHT22;64447;52.140;5.602;2023-06-10T04:16:40;19.70;77.50
35593;DHT22;64447;52.140;5.602;2023-06-10T04:19:07;19.60;77.90
35593;DHT22;64447;52.140;5.602;2023-06-10T04:21:33;19.50;78.70
35593;DHT22;64447;52.140;5.602;2023-06-10T04:23:58;19.60;78.70
35593;DHT22;64447;52.140;5.602;2023-06-10T04:26:24;19.60;78.80
35593;DHT22;64447;52.140;5.602;2023-06-10T04:28:51;19.50;79.40
35593;DHT22;64447;52.140;5.602;2023-06-10T04:31:16;19.40;80.40
35593;DHT22;64447;52.140;5.602;2023-06-10T04:33:42;19.30;81.20
35593;DHT22;64447;52.140;5.602;2023-06-10T04:39:29;19.50;81.60
35593;DHT22;64447;52.140;5.602;2023-06-10T04:41:55;19.40;82.10
35593;DHT22;64447;52.140;5.602;2023-06-10T04:44:21;19.50;81.80
35593;DHT22;64447;52.140;5.602;2023-06-10T04:46:47;19.70;81.70
35593;DHT22;64447;52.140;5.602;2023-06-10T04:49:13;19.60;82.10
35593;DHT22;64447;52.140;5.602;2023-06-10T04:51:40;19.60;82.00
35593;DHT22;64447;52.140;5.602;2023-06-10T04:54:06;19.40;83.10
35593;DHT22;64447;52.140;5.602;2023-06-10T04:56:32;19.30;83.80
35593;DHT22;64447;52.140;5.602;2023-06-10T04:58:57;19.20;84.00
35593;DHT22;64447;52.140;5.602;2023-06-10T05:01:23;19.30;84.50
35593;DHT22;64447;52.140;5.602;2023-06-10T05:03:49;19.30;84.50
35593;DHT22;64447;52.140;5.602;2023-06-10T05:09:36;19.50;85.00
35593;DHT22;64447;52.140;5.602;2023-06-10T05:12:03;19.70;84.70
35593;DHT22;64447;52.140;5.602;2023-06-10T05:14:28;19.90;84.20
35593;DHT22;64447;52.140;5.602;2023-06-10T05:16:54;19.90;84.10
35593;DHT22;64447;52.140;5.602;2023-06-10T05:19:19;19.80;84.60
35593;DHT22;64447;52.140;5.602;2023-06-10T05:21:45;19.80;84.00
35593;DHT22;64447;52.140;5.602;2023-06-10T05:24:11;19.80;84.60
35593;DHT22;64447;52.140;5.602;2023-06-10T05:26:37;20.00;84.00
35593;DHT22;64447;52.140;5.602;2023-06-10T05:29:04;20.10;83.80
35593;DHT22;64447;52.140;5.602;2023-06-10T05:31:30;20.00;83.40
35593;DHT22;64447;52.140;5.602;2023-06-10T05:33:56;20.20;84.30
35593;DHT22;64447;52.140;5.602;2023-06-10T05:39:44;20.40;82.70
35593;DHT22;64447;52.140;5.602;2023-06-10T05:42:09;20.50;83.10
35593;DHT22;64447;52.140;5.602;2023-06-10T05:44:35;20.60;82.80
35593;DHT22;64447;52.140;5.602;2023-06-10T05:47:01;20.60;82.70
35593;DHT22;64447;52.140;5.602;2023-06-10T05:49:27;20.80;82.20
35593;DHT22;64447;52.140;5.602;2023-06-10T05:55:17;20.50;82.10
35593;DHT22;64447;52.140;5.602;2023-06-10T05:57:43;20.50;82.30
35593;DHT22;64447;52.140;5.602;2023-06-10T06:00:09;20.60;81.80
35593;DHT22;64447;52.140;5.602;2023-06-10T06:02:35;20.70;82.10
35593;DHT22;64447;52.140;5.602;2023-06-10T06:05:00;20.70;81.60
35593;DHT22;64447;52.140;5.602;2023-06-10T06:07:26;20.70;81.20
35593;DHT22;64447;52.140;5.602;2023-06-10T06:09:52;20.60;81.70
35593;DHT22;64447;52.140;5.602;2023-06-10T06:12:17;20.80;81.40
35593;DHT22;64447;52.140;5.602;2023-06-10T06:14:43;20.90;80.70
35593;DHT22;64447;52.140;5.602;2023-06-10T06:17:10;21.00;81.00
35593;DHT22;64447;52.140;5.602;2023-06-10T06:19:35;21.30;80.60
35593;DHT22;64447;52.140;5.602;2023-06-10T06:25:23;21.80;79.10
35593;DHT22;64447;52.140;5.602;2023-06-10T06:27:48;21.90;78.60
35593;DHT22;64447;52.140;5.602;2023-06-10T06:30:14;22.10;77.60
35593;DHT22;64447;52.140;5.602;2023-06-10T06:32:40;22.10;76.50
35593;DHT22;64447;52.140;5.602;2023-06-10T06:35:05;22.30;76.10
35593;DHT22;64447;52.140;5.602;2023-06-10T06:37:33;22.40;76.00
35593;DHT22;64447;52.140;5.602;2023-06-10T06:39:59;22.50;75.90
35593;DHT22;64447;52.140;5.602;2023-06-10T06:42:24;22.60;75.00
35593;DHT22;64447;52.140;5.602;2023-06-10T06:44:50;22.70;75.30
35593;DHT22;64447;52.140;5.602;2023-06-10T06:47:16;22.80;75.50
35593;DHT22;64447;52.140;5.602;2023-06-10T06:49:45;22.80;75.20
35593;DHT22;64447;52.140;5.602;2023-06-10T06:55:33;22.90;73.70
35593;DHT22;64447;52.140;5.602;2023-06-10T06:57:58;22.80;73.80
35593;DHT22;64447;52.140;5.602;2023-06-10T07:00:28;22.80;74.10
35593;DHT22;64447;52.140;5.602;2023-06-10T07:02:53;23.00;73.70
35593;DHT22;64447;52.140;5.602;2023-06-10T07:05:19;23.00;73.30
35593;DHT22;64447;52.140;5.602;2023-06-10T07:07:45;23.00;72.60
35593;DHT22;64447;52.140;5.602;2023-06-10T07:10:10;23.00;73.10
35593;DHT22;64447;52.140;5.602;2023-06-10T07:12:36;23.10;72.80
35593;DHT22;64447;52.140;5.602;2023-06-10T07:15:02;23.00;72.60
35593;DHT22;64447;52.140;5.602;2023-06-10T07:17:28;23.30;73.10
35593;DHT22;64447;52.140;5.602;2023-06-10T07:19:53;23.40;72.00
35593;DHT22;64447;52.140;5.602;2023-06-10T07:25:44;23.50;72.50
35593;DHT22;64447;52.140;5.602;2023-06-10T07:28:10;23.50;72.30
35593;DHT22;64447;52.140;5.602;2023-06-10T07:30:36;23.70;72.20
35593;DHT22;64447;52.140;5.602;2023-06-10T07:33:04;23.80;72.10
35593;DHT22;64447;52.140;5.602;2023-06-10T07:35:31;24.00;70.30
35593;DHT22;64447;52.140;5.602;2023-06-10T07:37:56;24.10;70.80
35593;DHT22;64447;52.140;5.602;2023-06-10T07:40:22;24.30;70.10
35593;DHT22;64447;52.140;5.602;2023-06-10T07:42:47;24.40;70.00
35593;DHT22;64447;52.140;5.602;2023-06-10T07:45:13;24.40;70.10
35593;DHT22;64447;52.140;5.602;2023-06-10T07:47:39;24.60;71.20
35593;DHT22;64447;52.140;5.602;2023-06-10T07:50:05;24.80;70.80
35593;DHT22;64447;52.140;5.602;2023-06-10T07:55:53;24.80;68.80
35593;DHT22;64447;52.140;5.602;2023-06-10T07:58:19;24.70;68.30
35593;DHT22;64447;52.140;5.602;2023-06-10T08:00:46;24.90;67.50
35593;DHT22;64447;52.140;5.602;2023-06-10T08:03:11;25.00;68.60
35593;DHT22;64447;52.140;5.602;2023-06-10T08:05:37;25.00;68.10
35593;DHT22;64447;52.140;5.602;2023-06-10T08:08:03;24.90;67.40
35593;DHT22;64447;52.140;5.602;2023-06-10T08:10:28;25.00;66.20
35593;DHT22;64447;52.140;5.602;2023-06-10T08:12:54;25.10;68.40
35593;DHT22;64447;52.140;5.602;2023-06-10T08:15:19;25.40;67.30
35593;DHT22;64447;52.140;5.602;2023-06-10T08:17:45;25.50;66.90
35593;DHT22;64447;52.140;5.602;2023-06-10T08:20:11;25.40;65.50
35593;DHT22;64447;52.140;5.602;2023-06-10T08:25:58;25.40;64.70
35593;DHT22;64447;52.140;5.602;2023-06-10T08:28:24;25.50;64.50
35593;DHT22;64447;52.140;5.602;2023-06-10T08:30:49;25.40;64.30
35593;DHT22;64447;52.140;5.602;2023-06-10T08:33:15;25.60;64.40
35593;DHT22;64447;52.140;5.602;2023-06-10T08:35:40;25.60;62.40
35593;DHT22;64447;52.140;5.602;2023-06-10T08:38:06;25.90;63.00
35593;DHT22;64447;52.140;5.602;2023-06-10T08:40:32;25.90;61.60
35593;DHT22;64447;52.140;5.602;2023-06-10T08:43:08;26.00;60.80
35593;DHT22;64447;52.140;5.602;2023-06-10T08:45:37;25.90;59.70
35593;DHT22;64447;52.140;5.602;2023-06-10T08:48:04;25.90;61.40
35593;DHT22;64447;52.140;5.602;2023-06-10T08:50:37;25.90;61.30
35593;DHT22;64447;52.140;5.602;2023-06-10T08:56:26;25.80;61.20
35593;DHT22;64447;52.140;5.602;2023-06-10T08:58:57;25.90;63.20
35593;DHT22;64447;52.140;5.602;2023-06-10T09:01:24;26.00;61.30
35593;DHT22;64447;52.140;5.602;2023-06-10T09:03:51;26.10;60.00
35593;DHT22;64447;52.140;5.602;2023-06-10T09:06:18;26.00;59.10
35593;DHT22;64447;52.140;5.602;2023-06-10T09:08:43;26.10;59.40
35593;DHT22;64447;52.140;5.602;2023-06-10T09:11:09;26.30;60.10
35593;DHT22;64447;52.140;5.602;2023-06-10T09:13:35;26.60;60.80
35593;DHT22;64447;52.140;5.602;2023-06-10T09:16:00;26.60;59.50
35593;DHT22;64447;52.140;5.602;2023-06-10T09:18:28;26.60;58.00
35593;DHT22;64447;52.140;5.602;2023-06-10T09:20:53;26.70;59.20
35593;DHT22;64447;52.140;5.602;2023-06-10T09:26:42;26.90;58.60
35593;DHT22;64447;52.140;5.602;2023-06-10T09:29:08;26.80;57.80
35593;DHT22;64447;52.140;5.602;2023-06-10T09:31:38;26.90;57.00
35593;DHT22;64447;52.140;5.602;2023-06-10T09:34:14;26.90;57.80
35593;DHT22;64447;52.140;5.602;2023-06-10T09:36:40;27.10;57.20
35593;DHT22;64447;52.140;5.602;2023-06-10T09:39:15;27.20;55.50
35593;DHT22;64447;52.140;5.602;2023-06-10T09:41:42;27.30;55.40
35593;DHT22;64447;52.140;5.602;2023-06-10T09:44:15;27.20;55.60
35593;DHT22;64447;52.140;5.602;2023-06-10T09:46:42;27.40;56.20
35593;DHT22;64447;52.140;5.602;2023-06-10T09:49:08;27.60;54.60
35593;DHT22;64447;52.140;5.602;2023-06-10T09:51:33;27.50;53.40
35593;DHT22;64447;52.140;5.602;2023-06-10T09:54:02;27.40;54.40
35593;DHT22;64447;52.140;5.602;2023-06-10T09:56:35;27.40;53.50
35593;DHT22;64447;52.140;5.602;2023-06-10T09:59:01;27.40;52.80
35593;DHT22;64447;52.140;5.602;2023-06-10T10:01:26;27.40;53.10
35593;DHT22;64447;52.140;5.602;2023-06-10T10:03:52;27.50;52.20
35593;DHT22;64447;52.140;5.602;2023-06-10T10:06:20;27.30;53.50
35593;DHT22;64447;52.140;5.602;2023-06-10T10:08:48;27.50;52.40
35593;DHT22;64447;52.140;5.602;2023-06-10T10:11:16;27.50;51.60
35593;DHT22;64447;52.140;5.602;2023-06-10T10:13:45;27.60;52.10
35593;DHT22;64447;52.140;5.602;2023-06-10T10:16:37;27.90;50.80
35593;DHT22;64447;52.140;5.602;2023-06-10T10:19:08;28.00;51.30
35593;DHT22;64447;52.140;5.602;2023-06-10T10:21:39;28.00;49.70
35593;DHT22;64447;52.140;5.602;2023-06-10T10:24:18;28.10;49.60
35593;DHT22;64447;52.140;5.602;2023-06-10T10:26:47;28.10;50.20
35593;DHT22;64447;52.140;5.602;2023-06-10T10:29:45;28.30;50.60
35593;DHT22;64447;52.140;5.602;2023-06-10T10:32:12;28.30;47.60
35593;DHT22;64447;52.140;5.602;2023-06-10T10:34:43;28.10;47.70
35593;DHT22;64447;52.140;5.602;2023-06-10T10:37:13;28.20;47.50
35593;DHT22;64447;52.140;5.602;2023-06-10T10:39:39;28.20;47.90
35593;DHT22;64447;52.140;5.602;2023-06-10T10:42:07;28.40;48.10
35593;DHT22;64447;52.140;5.602;2023-06-10T10:44:37;28.70;46.30
35593;DHT22;64447;52.140;5.602;2023-06-10T10:47:08;28.80;46.20
35593;DHT22;64447;52.140;5.602;2023-06-10T10:49:35;28.80;43.70
35593;DHT22;64447;52.140;5.602;2023-06-10T10:52:03;28.90;45.20
35593;DHT22;64447;52.140;5.602;2023-06-10T10:54:35;28.80;45.30
35593;DHT22;64447;52.140;5.602;2023-06-10T10:57:18;29.10;45.90
35593;DHT22;64447;52.140;5.602;2023-06-10T10:59:55;29.00;43.90
35593;DHT22;64447;52.140;5.602;2023-06-10T11:05:06;29.00;43.60
35593;DHT22;64447;52.140;5.602;2023-06-10T11:07:33;29.20;44.80
35593;DHT22;64447;52.140;5.602;2023-06-10T11:12:25;28.70;43.00
35593;DHT22;64447;52.140;5.602;2023-06-10T11:14:55;28.70;43.90
35593;DHT22;64447;52.140;5.602;2023-06-10T11:17:21;29.00;42.80
35593;DHT22;64447;52.140;5.602;2023-06-10T11:19:47;29.00;41.30
35593;DHT22;64447;52.140;5.602;2023-06-10T11:22:21;28.90;40.00
35593;DHT22;64447;52.140;5.602;2023-06-10T11:24:51;28.90;41.90
35593;DHT22;64447;52.140;5.602;2023-06-10T11:27:20;29.00;42.00
35593;DHT22;64447;52.140;5.602;2023-06-10T11:34:56;29.30;39.80
35593;DHT22;64447;52.140;5.602;2023-06-10T11:37:21;29.30;41.80
35593;DHT22;64447;52.140;5.602;2023-06-10T11:39:51;29.60;42.30
35593;DHT22;64447;52.140;5.602;2023-06-10T11:42:16;29.90;40.50
35593;DHT22;64447;52.140;5.602;2023-06-10T11:44:49;29.70;40.00
35593;DHT22;64447;52.140;5.602;2023-06-10T11:47:15;29.50;40.20
35593;DHT22;64447;52.140;5.602;2023-06-10T11:49:40;29.60;41.20
35593;DHT22;64447;52.140;5.602;2023-06-10T11:52:06;29.80;42.00
35593;DHT22;64447;52.140;5.602;2023-06-10T11:54:32;29.90;40.60
35593;DHT22;64447;52.140;5.602;2023-06-10T11:56:58;29.90;41.30
35593;DHT22;64447;52.140;5.602;2023-06-10T11:59:31;30.20;41.90
35593;DHT22;64447;52.140;5.602;2023-06-10T12:01:57;29.80;40.70
35593;DHT22;64447;52.140;5.602;2023-06-10T12:04:27;29.90;41.60
35593;DHT22;64447;52.140;5.602;2023-06-10T12:06:53;30.10;40.70
35593;DHT22;64447;52.140;5.602;2023-06-10T12:12:41;29.90;41.00
35593;DHT22;64447;52.140;5.602;2023-06-10T12:15:07;29.90;41.10
35593;DHT22;64447;52.140;5.602;2023-06-10T12:20:04;30.00;41.80
35593;DHT22;64447;52.140;5.602;2023-06-10T12:22:40;30.20;39.70
35593;DHT22;64447;52.140;5.602;2023-06-10T12:25:07;29.80;40.90
35593;DHT22;64447;52.140;5.602;2023-06-10T12:27:34;30.10;42.60
35593;DHT22;64447;52.140;5.602;2023-06-10T12:30:02;30.10;39.90
35593;DHT22;64447;52.140;5.602;2023-06-10T12:32:45;30.10;41.20
35593;DHT22;64447;52.140;5.602;2023-06-10T12:35:17;30.40;43.20
35593;DHT22;64447;52.140;5.602;2023-06-10T12:37:57;30.30;44.20
35593;DHT22;64447;52.140;5.602;2023-06-10T12:40:27;30.30;44.80
35593;DHT22;64447;52.140;5.602;2023-06-10T12:42:54;30.10;41.60
35593;DHT22;64447;52.140;5.602;2023-06-10T12:45:30;30.20;41.00
35593;DHT22;64447;52.140;5.602;2023-06-10T12:48:20;30.30;41.80
35593;DHT22;64447;52.140;5.602;2023-06-10T12:50:51;30.30;39.40
35593;DHT22;64447;52.140;5.602;2023-06-10T12:53:18;30.40;40.10
35593;DHT22;64447;52.140;5.602;2023-06-10T12:55:44;30.30;38.10
35593;DHT22;64447;52.140;5.602;2023-06-10T12:58:13;30.40;39.40
35593;DHT22;64447;52.140;5.602;2023-06-10T13:00:39;30.40;40.10
35593;DHT22;64447;52.140;5.602;2023-06-10T13:03:05;30.50;40.40
35593;DHT22;64447;52.140;5.602;2023-06-10T13:05:32;30.90;39.40
35593;DHT22;64447;52.140;5.602;2023-06-10T13:07:58;30.80;38.70
35593;DHT22;64447;52.140;5.602;2023-06-10T13:10:24;30.80;38.20
35593;DHT22;64447;52.140;5.602;2023-06-10T13:12:50;30.80;37.40
35593;DHT22;64447;52.140;5.602;2023-06-10T13:15:16;30.90;39.00
35593;DHT22;64447;52.140;5.602;2023-06-10T13:17:45;30.90;38.70
35593;DHT22;64447;52.140;5.602;2023-06-10T13:20:14;30.80;36.90
35593;DHT22;64447;52.140;5.602;2023-06-10T13:22:41;30.80;38.70
35593;DHT22;64447;52.140;5.602;2023-06-10T13:28:29;30.90;39.00
35593;DHT22;64447;52.140;5.602;2023-06-10T13:30:56;30.90;37.90
35593;DHT22;64447;52.140;5.602;2023-06-10T13:33:21;30.70;38.20
35593;DHT22;64447;52.140;5.602;2023-06-10T13:35:48;30.80;37.70
35593;DHT22;64447;52.140;5.602;2023-06-10T13:38:13;31.10;37.80
35593;DHT22;64447;52.140;5.602;2023-06-10T13:40:39;31.20;37.00
35593;DHT22;64447;52.140;5.602;2023-06-10T13:43:04;31.30;36.90
35593;DHT22;64447;52.140;5.602;2023-06-10T13:45:30;31.40;37.00
35593;DHT22;64447;52.140;5.602;2023-06-10T13:47:56;31.60;37.90
35593;DHT22;64447;52.140;5.602;2023-06-10T13:50:21;31.40;36.20
35593;DHT22;64447;52.140;5.602;2023-06-10T13:52:47;31.30;36.80
35593;DHT22;64447;52.140;5.602;2023-06-10T13:58:34;31.10;36.20
35593;DHT22;64447;52.140;5.602;2023-06-10T14:01:04;31.10;36.50
35593;DHT22;64447;52.140;5.602;2023-06-10T14:03:30;31.20;37.70
35593;DHT22;64447;52.140;5.602;2023-06-10T14:05:56;31.30;37.00
35593;DHT22;64447;52.140;5.602;2023-06-10T14:08:21;31.10;36.70
35593;DHT22;64447;52.140;5.602;2023-06-10T14:10:47;31.20;36.90
35593;DHT22;64447;52.140;5.602;2023-06-10T14:13:13;31.40;37.40
35593;DHT22;64447;52.140;5.602;2023-06-10T14:15:39;31.40;36.40
35593;DHT22;64447;52.140;5.602;2023-06-10T14:18:05;31.50;37.70
35593;DHT22;64447;52.140;5.602;2023-06-10T14:20:30;31.50;36.90
35593;DHT22;64447;52.140;5.602;2023-06-10T14:22:57;31.40;35.60
35593;DHT22;64447;52.140;5.602;2023-06-10T14:28:45;31.50;35.80
35593;DHT22;64447;52.140;5.602;2023-06-10T14:31:11;31.50;36.00
35593;DHT22;64447;52.140;5.602;2023-06-10T14:33:36;31.60;36.70
35593;DHT22;64447;52.140;5.602;2023-06-10T14:36:02;31.30;35.60
35593;DHT22;64447;52.140;5.602;2023-06-10T14:38:27;31.30;36.80
35593;DHT22;64447;52.140;5.602;2023-06-10T14:40:53;31.50;36.70
35593;DHT22;64447;52.140;5.602;2023-06-10T14:43:19;31.80;35.40
35593;DHT22;64447;52.140;5.602;2023-06-10T14:45:44;31.60;36.00
35593;DHT22;64447;52.140;5.602;2023-06-10T14:48:10;31.50;35.60
35593;DHT22;64447;52.140;5.602;2023-06-10T14:50:37;31.40;35.90
35593;DHT22;64447;52.140;5.602;2023-06-10T14:53:03;31.40;36.40
35593;DHT22;64447;52.140;5.602;2023-06-10T14:58:50;31.30;35.70
35593;DHT22;64447;52.140;5.602;2023-06-10T15:01:16;31.60;34.90
35593;DHT22;64447;52.140;5.602;2023-06-10T15:03:41;31.80;35.00
35593;DHT22;64447;52.140;5.602;2023-06-10T15:06:07;31.70;34.90
35593;DHT22;64447;52.140;5.602;2023-06-10T15:08:33;31.70;35.60
35593;DHT22;64447;52.140;5.602;2023-06-10T15:14:20;31.80;35.40
35593;DHT22;64447;52.140;5.602;2023-06-10T15:16:46;31.80;35.70
35593;DHT22;64447;52.140;5.602;2023-06-10T15:19:21;31.70;34.00
35593;DHT22;64447;52.140;5.602;2023-06-10T15:21:47;31.70;34.30
35593;DHT22;64447;52.140;5.602;2023-06-10T15:24:12;31.80;35.10
35593;DHT22;64447;52.140;5.602;2023-06-10T15:26:38;32.00;35.10
35593;DHT22;64447;52.140;5.602;2023-06-10T15:29:03;32.00;34.50
35593;DHT22;64447;52.140;5.602;2023-06-10T15:31:30;31.90;33.60
35593;DHT22;64447;52.140;5.602;2023-06-10T15:33:57;32.00;34.50
35593;DHT22;64447;52.140;5.602;2023-06-10T15:36:23;32.10;33.10
35593;DHT22;64447;52.140;5.602;2023-06-10T15:38:49;32.00;33.90
35593;DHT22;64447;52.140;5.602;2023-06-10T15:44:36;31.50;33.60
35593;DHT22;64447;52.140;5.602;2023-06-10T15:47:02;31.40;34.20
35593;DHT22;64447;52.140;5.602;2023-06-10T15:49:27;31.80;35.20
35593;DHT22;64447;52.140;5.602;2023-06-10T15:51:53;32.10;34.20
35593;DHT22;64447;52.140;5.602;2023-06-10T15:54:19;32.20;34.60
35593;DHT22;64447;52.140;5.602;2023-06-10T15:56:44;32.30;34.00
35593;DHT22;64447;52.140;5.602;2023-06-10T15:59:10;32.10;34.40
35593;DHT22;64447;52.140;5.602;2023-06-10T16:01:37;32.10;33.00
35593;DHT22;64447;52.140;5.602;2023-06-10T16:04:02;32.10;32.00
35593;DHT22;64447;52.140;5.602;2023-06-10T16:06:28;32.00;32.00
35593;DHT22;64447;52.140;5.602;2023-06-10T16:08:54;31.80;32.60
35593;DHT22;64447;52.140;5.602;2023-06-10T16:14:42;31.80;33.30
35593;DHT22;64447;52.140;5.602;2023-06-10T16:17:08;32.00;33.50
35593;DHT22;64447;52.140;5.602;2023-06-10T16:19:33;32.10;32.90
35593;DHT22;64447;52.140;5.602;2023-06-10T16:21:59;32.00;32.30
35593;DHT22;64447;52.140;5.602;2023-06-10T16:24:24;32.20;32.50
35593;DHT22;64447;52.140;5.602;2023-06-10T16:26:50;32.40;33.30
35593;DHT22;64447;52.140;5.602;2023-06-10T16:29:16;32.30;32.20
35593;DHT22;64447;52.140;5.602;2023-06-10T16:31:42;32.40;32.70
35593;DHT22;64447;52.140;5.602;2023-06-10T16:34:07;32.30;32.50
35593;DHT22;64447;52.140;5.602;2023-06-10T16:36:33;32.30;33.50
35593;DHT22;64447;52.140;5.602;2023-06-10T16:38:58;32.00;33.10
35593;DHT22;64447;52.140;5.602;2023-06-10T16:44:46;32.10;33.70
35593;DHT22;64447;52.140;5.602;2023-06-10T16:47:11;31.70;34.00
35593;DHT22;64447;52.140;5.602;2023-06-10T16:49:37;31.50;34.50
35593;DHT22;64447;52.140;5.602;2023-06-10T16:52:04;31.50;35.40
35593;DHT22;64447;52.140;5.602;2023-06-10T16:54:30;31.60;35.10
35593;DHT22;64447;52.140;5.602;2023-06-10T16:56:56;31.60;34.80
35593;DHT22;64447;52.140;5.602;2023-06-10T16:59:22;31.60;34.10
35593;DHT22;64447;52.140;5.602;2023-06-10T17:01:47;31.40;33.80
35593;DHT22;64447;52.140;5.602;2023-06-10T17:04:13;31.40;34.60
35593;DHT22;64447;52.140;5.602;2023-06-10T17:06:39;31.50;34.40
35593;DHT22;64447;52.140;5.602;2023-06-10T17:09:04;31.60;35.20
35593;DHT22;64447;52.140;5.602;2023-06-10T17:14:52;31.80;34.80
35593;DHT22;64447;52.140;5.602;2023-06-10T17:17:18;31.90;34.10
35593;DHT22;64447;52.140;5.602;2023-06-10T17:19:43;31.90;34.10